createdAt,value
2022-11-25T00:02:59.200Z,14.45
2022-11-25T00:08:00.905Z,17.93
2022-11-25T00:13:02.562Z,15.45
2022-11-25T00:18:04.221Z,14.20
2022-11-25T00:23:05.773Z,13.40
2022-11-25T00:28:07.338Z,13.57
2022-11-25T00:33:08.903Z,13.83
2022-11-25T00:38:10.473Z,12.48
2022-11-25T00:43:30.665Z,12.38
2022-11-25T00:48:32.222Z,12.35
2022-11-25T00:53:33.778Z,10.65
2022-11-25T00:58:35.344Z,12.43
2022-11-25T01:03:37.249Z,11.90
2022-11-25T01:08:39.003Z,12.73
2022-11-25T01:13:40.563Z,16.15
2022-11-25T01:18:42.828Z,9.45
2022-11-25T01:23:44.630Z,10.15
2022-11-25T01:28:48.231Z,11.70
2022-11-25T01:33:59.889Z,8.90
2022-11-25T01:39:01.556Z,9.73
2022-11-25T01:44:05.631Z,7.75
2022-11-25T01:49:10.692Z,8.90
2022-11-25T01:54:14.341Z,10.23
2022-11-25T01:59:16.322Z,7.15
2022-11-25T02:04:19.449Z,7.53
2022-11-25T02:09:22.583Z,6.85
2022-11-25T02:14:25.484Z,7.75
2022-11-25T02:19:45.798Z,7.50
2022-11-25T02:24:48.954Z,9.55
2022-11-25T02:29:50.695Z,7.40
2022-11-25T02:34:52.265Z,7.87
2022-11-25T02:39:54.888Z,10.35
2022-11-25T02:44:56.774Z,8.43
2022-11-25T02:49:59.086Z,9.77
2022-11-25T02:55:00.671Z,9.82
2022-11-25T03:00:02.602Z,10.20
2022-11-25T03:05:05.073Z,9.50
2022-11-25T03:10:07.070Z,11.05
2022-11-25T03:15:10.316Z,9.60
2022-11-25T03:20:15.222Z,8.55
2022-11-25T03:25:17.538Z,9.55
2022-11-25T03:30:22.988Z,10.25
2022-11-25T03:35:27.804Z,10.45
2022-11-25T03:40:29.416Z,9.65
2022-11-25T03:45:31.056Z,9.53
2022-11-25T03:50:35.058Z,8.77
2022-11-25T03:55:36.690Z,8.95
2022-11-25T04:00:39.304Z,8.85
2022-11-25T04:05:41.622Z,9.10
2022-11-25T04:10:43.244Z,10.68
2022-11-25T04:15:47.226Z,9.07
2022-11-25T04:20:50.746Z,9.25
2022-11-25T04:25:52.591Z,8.90
2022-11-25T04:31:00.092Z,7.80
2022-11-25T04:36:02.796Z,8.48
2022-11-25T04:41:04.497Z,9.83
2022-11-25T04:46:16.769Z,7.53
2022-11-25T04:51:22.459Z,9.65
2022-11-25T04:56:28.071Z,11.37
2022-11-25T05:01:31.006Z,9.93
2022-11-25T05:06:42.984Z,9.27
2022-11-25T05:11:45.007Z,8.45
2022-11-25T05:16:46.719Z,8.83
2022-11-25T05:21:48.556Z,9.07
2022-11-25T05:26:50.269Z,8.52
2022-11-25T05:31:51.898Z,6.97
2022-11-25T05:36:53.781Z,7.28
2022-11-25T05:41:55.848Z,7.95
2022-11-25T05:46:57.523Z,7.53
2022-11-25T05:52:01.114Z,8.80
2022-11-25T05:57:06.899Z,8.30
2022-11-25T06:02:16.441Z,7.75
2022-11-25T06:07:18.192Z,7.70
2022-11-25T06:12:22.797Z,8.82
2022-11-25T06:17:24.454Z,9.40
2022-11-25T06:22:34.899Z,8.50
2022-11-25T06:28:04.475Z,8.35
2022-11-25T06:32:58.265Z,9.40
2022-11-25T06:38:00.028Z,8.88
2022-11-25T06:43:01.607Z,8.77
2022-11-25T06:48:03.395Z,10.45
2022-11-25T06:53:04.940Z,9.20
2022-11-25T06:58:28.331Z,8.00
2022-11-25T07:03:28.103Z,8.97
2022-11-25T07:08:33.904Z,8.13
2022-11-25T07:13:36.101Z,8.40
2022-11-25T07:18:38.603Z,9.55
2022-11-25T07:23:41.283Z,9.15
2022-11-25T07:28:43.609Z,9.13
2022-11-25T07:33:45.779Z,10.37
2022-11-25T07:38:47.820Z,10.70
2022-11-25T07:43:55.399Z,10.80
2022-11-25T07:49:06.345Z,12.93
2022-11-25T07:54:11.148Z,10.93
2022-11-25T07:59:15.172Z,11.88
2022-11-25T08:04:20.432Z,10.35
2022-11-25T08:09:24.006Z,15.77
2022-11-25T08:14:26.525Z,12.03
2022-11-25T08:19:31.430Z,13.83
2022-11-25T08:24:33.209Z,10.77
2022-11-25T08:29:35.280Z,12.10
2022-11-25T08:34:37.181Z,11.87
2022-11-25T08:39:55.666Z,13.63
2022-11-25T08:44:57.835Z,12.03
2022-11-25T08:49:59.672Z,10.70
2022-11-25T08:55:01.322Z,10.70
2022-11-25T09:00:05.772Z,11.33
2022-11-25T09:05:07.684Z,10.17
2022-11-25T09:10:12.654Z,10.43
2022-11-25T09:15:14.230Z,11.13
2022-11-25T09:20:15.867Z,12.13
2022-11-25T09:25:17.455Z,12.00
2022-11-25T09:30:19.130Z,11.20
2022-11-25T09:35:21.249Z,11.60
2022-11-25T09:40:54.092Z,10.87
2022-11-25T09:46:42.640Z,10.57
2022-11-25T09:52:10.531Z,11.13
2022-11-25T09:57:24.100Z,12.00
2022-11-25T10:02:35.516Z,10.20
2022-11-25T10:07:41.418Z,9.13
2022-11-25T10:12:45.345Z,9.40
2022-11-25T10:17:53.269Z,10.00
2022-11-25T10:22:57.856Z,12.80
2022-11-25T10:28:05.974Z,10.23
2022-11-25T10:33:33.463Z,10.48
2022-11-25T10:38:45.450Z,9.33
2022-11-25T10:43:47.693Z,10.60
2022-11-25T10:49:35.280Z,11.52
2022-11-25T10:54:36.889Z,8.70
2022-11-25T10:59:40.056Z,7.57
2022-11-25T11:05:10.383Z,9.33
2022-11-25T11:10:14.988Z,10.77
2022-11-25T11:15:23.660Z,9.30
2022-11-25T11:20:29.470Z,11.47
2022-11-25T11:25:33.853Z,8.70
2022-11-25T11:30:35.425Z,8.80
2022-11-25T11:35:55.065Z,10.03
2022-11-25T11:41:16.552Z,10.38
2022-11-25T11:46:47.322Z,12.45
2022-11-25T11:52:10.817Z,9.95
2022-11-25T11:57:27.454Z,8.02
2022-11-25T12:02:32.241Z,9.43
2022-11-25T12:08:07.955Z,9.77
2022-11-25T12:13:35.235Z,7.15
2022-11-25T12:19:09.088Z,9.15
2022-11-25T12:24:27.346Z,9.57
2022-11-25T12:29:53.999Z,8.70
2022-11-25T12:35:19.005Z,8.32
2022-11-25T12:40:27.034Z,11.02
2022-11-25T12:45:28.764Z,9.05
2022-11-25T12:50:35.795Z,8.52
2022-11-25T12:55:39.556Z,8.80
2022-11-25T13:00:42.735Z,11.07
2022-11-25T13:06:10.661Z,8.85
2022-11-25T13:11:12.592Z,8.50
2022-11-25T13:16:14.905Z,8.75
2022-11-25T13:21:18.500Z,8.85
2022-11-25T13:26:33.952Z,9.57
2022-11-25T13:31:59.420Z,10.38
2022-11-25T13:37:12.596Z,10.52
2022-11-25T13:42:21.501Z,9.68
2022-11-25T13:47:33.061Z,9.70
2022-11-25T13:52:38.231Z,11.13
2022-11-25T13:57:40.766Z,9.82
2022-11-25T14:02:47.044Z,8.18
2022-11-25T14:08:10.527Z,8.35
2022-11-25T14:13:20.985Z,10.23
2022-11-25T14:24:31.150Z,11.52
2022-11-25T14:29:32.628Z,10.70
2022-11-25T14:34:39.878Z,14.02
2022-11-25T14:39:49.441Z,11.40
2022-11-25T14:44:53.170Z,12.90
2022-11-25T14:50:18.978Z,9.60
2022-11-25T14:55:27.377Z,13.05
2022-11-25T15:00:28.909Z,11.50
2022-11-25T15:05:34.971Z,13.18
2022-11-25T15:10:40.441Z,12.43
2022-11-25T15:15:45.134Z,14.43
2022-11-25T15:20:48.958Z,13.95
2022-11-25T15:25:52.274Z,16.65
2022-11-25T15:31:01.168Z,14.40
2022-11-25T15:36:03.016Z,14.68
2022-11-25T15:41:06.160Z,15.90
2022-11-25T15:46:08.901Z,15.10
2022-11-25T15:51:38.649Z,16.45
2022-11-25T15:56:45.881Z,14.65
2022-11-25T16:01:47.609Z,15.05
2022-11-25T16:06:53.818Z,16.55
2022-11-25T16:12:04.776Z,16.02
2022-11-25T16:17:10.888Z,15.32
2022-11-25T16:22:16.496Z,17.63
2022-11-25T16:27:28.281Z,15.32
2022-11-25T16:32:31.359Z,15.63
2022-11-25T16:37:32.944Z,17.38
2022-11-25T16:42:34.527Z,17.20
2022-11-25T16:47:36.119Z,17.15
2022-11-25T16:52:37.716Z,16.95
2022-11-25T16:57:40.722Z,16.60
2022-11-25T17:02:42.519Z,18.30
2022-11-25T17:07:44.288Z,17.40
2022-11-25T17:12:46.690Z,17.17
2022-11-25T17:17:48.729Z,16.42
2022-11-25T17:22:51.597Z,16.75
2022-11-25T17:27:53.897Z,15.68
2022-11-25T17:33:04.168Z,19.77
2022-11-25T17:38:20.428Z,17.85
2022-11-25T17:43:22.130Z,15.10
2022-11-25T17:48:24.073Z,17.30
2022-11-25T17:53:25.597Z,15.98
2022-11-25T17:58:27.146Z,19.20
2022-11-25T18:03:28.694Z,20.33
2022-11-25T18:08:30.279Z,18.77
2022-11-25T18:13:36.384Z,18.95
2022-11-25T18:18:38.218Z,18.33
2022-11-25T18:23:39.783Z,17.75
2022-11-25T18:28:41.388Z,20.42
2022-11-25T18:33:43.310Z,16.88
2022-11-25T18:38:45.537Z,18.10
2022-11-25T18:43:47.226Z,16.77
2022-11-25T18:48:48.780Z,20.88
2022-11-25T18:53:50.337Z,19.17
2022-11-25T18:58:51.977Z,19.52
2022-11-25T19:03:55.280Z,20.15
2022-11-25T19:08:56.847Z,19.50
2022-11-25T19:14:03.687Z,20.75
2022-11-25T19:19:05.362Z,19.05
2022-11-25T19:24:12.941Z,20.83
2022-11-25T19:29:23.695Z,18.35
2022-11-25T19:34:38.325Z,19.73
2022-11-25T19:39:40.095Z,19.05
2022-11-25T19:44:42.669Z,21.23
2022-11-25T19:49:44.611Z,19.00
2022-11-25T19:54:46.377Z,19.23
2022-11-25T19:59:48.312Z,23.60
2022-11-25T20:04:53.696Z,19.35
2022-11-25T20:10:14.666Z,20.73
2022-11-25T20:15:16.705Z,20.08
2022-11-25T20:20:31.783Z,18.92
2022-11-25T20:25:41.633Z,19.08
2022-11-25T20:30:43.287Z,19.25
2022-11-25T20:35:46.701Z,17.05
2022-11-25T20:40:50.293Z,20.95
2022-11-25T20:45:51.869Z,22.30
2022-11-25T20:50:53.696Z,19.58
2022-11-25T20:55:55.510Z,19.63
2022-11-25T21:00:58.080Z,18.30
2022-11-25T21:06:00.106Z,21.98
2022-11-25T21:11:01.855Z,20.65
2022-11-25T21:16:03.515Z,19.35
2022-11-25T21:21:14.818Z,22.65
2022-11-25T21:26:24.031Z,20.15
2022-11-25T21:31:26.324Z,19.20
2022-11-25T21:36:29.622Z,22.42
2022-11-25T21:41:31.296Z,22.92
2022-11-25T21:46:33.124Z,20.25
2022-11-25T21:51:34.727Z,18.50
2022-11-25T21:56:37.652Z,19.42
2022-11-25T22:01:39.337Z,20.50
2022-11-25T22:06:41.009Z,19.02
2022-11-25T22:11:47.926Z,21.45
2022-11-25T22:16:49.703Z,19.77
2022-11-25T22:21:51.332Z,19.90
2022-11-25T22:26:57.704Z,19.42
2022-11-25T22:31:59.866Z,20.13
2022-11-25T22:37:01.573Z,18.88
2022-11-25T22:42:06.826Z,17.05
2022-11-25T22:47:38.359Z,15.73
2022-11-25T22:52:39.948Z,16.30
2022-11-25T22:57:41.540Z,14.00
2022-11-25T23:02:43.123Z,14.98
2022-11-25T23:07:44.771Z,12.70
2022-11-25T23:12:46.812Z,10.77
2022-11-25T23:17:49.763Z,9.77
2022-11-25T23:22:51.344Z,9.15
2022-11-25T23:27:53.050Z,8.70
2022-11-25T23:32:54.667Z,9.40
2022-11-25T23:37:57.369Z,9.48
2022-11-25T23:42:58.997Z,8.48
2022-11-25T23:48:00.579Z,8.75
2022-11-25T23:53:05.298Z,9.25
2022-11-25T23:58:14.586Z,9.43
